createdAt,value
2023-12-26T00:02:34.460Z,100.00
2023-12-26T00:07:36.207Z,100.00
2023-12-26T00:12:37.915Z,100.00
2023-12-26T00:17:39.841Z,100.00
2023-12-26T00:22:41.624Z,100.00
2023-12-26T00:27:43.722Z,100.00
2023-12-26T00:32:45.741Z,100.00
2023-12-26T00:37:47.511Z,100.00
2023-12-26T00:42:49.331Z,100.00
2023-12-26T00:47:51.357Z,100.00
2023-12-26T00:52:53.452Z,100.00
2023-12-26T00:57:55.429Z,100.00
2023-12-26T01:02:57.473Z,100.00
2023-12-26T01:07:59.621Z,100.00
2023-12-26T01:13:01.496Z,100.00
2023-12-26T01:18:06.100Z,100.00
2023-12-26T01:23:07.999Z,100.00
2023-12-26T01:28:09.692Z,100.00
2023-12-26T01:33:11.664Z,100.00
2023-12-26T01:38:13.476Z,100.00
2023-12-26T01:43:16.019Z,100.00
2023-12-26T01:48:17.942Z,100.00
2023-12-26T01:53:19.919Z,100.00
2023-12-26T01:58:22.900Z,100.00
2023-12-26T02:03:24.897Z,100.00
2023-12-26T02:08:26.917Z,100.00
2023-12-26T02:13:28.678Z,100.00
2023-12-26T02:18:31.351Z,100.00
2023-12-26T02:23:35.904Z,100.00
2023-12-26T02:28:39.200Z,100.00
2023-12-26T02:33:41.564Z,100.00
2023-12-26T02:38:43.429Z,100.00
2023-12-26T02:43:46.141Z,100.00
2023-12-26T02:48:48.971Z,100.00
2023-12-26T02:53:53.065Z,100.00
2023-12-26T02:58:54.808Z,100.00
2023-12-26T03:03:56.583Z,100.00
2023-12-26T03:08:58.394Z,97.90
2023-12-26T03:14:00.968Z,96.55
2023-12-26T03:19:02.948Z,95.65
2023-12-26T03:24:05.096Z,93.02
2023-12-26T03:29:06.937Z,91.19
2023-12-26T03:34:09.029Z,90.76
2023-12-26T03:39:11.041Z,91.23
2023-12-26T03:44:12.879Z,93.54
2023-12-26T03:49:14.969Z,100.00
2023-12-26T03:54:16.784Z,100.00
2023-12-26T04:18:09.733Z,100.00
2023-12-26T04:23:28.235Z,100.00
2023-12-26T04:28:30.199Z,97.69
2023-12-26T04:33:32.368Z,97.29
2023-12-26T04:38:34.725Z,96.65
2023-12-26T04:43:36.547Z,95.16
2023-12-26T04:48:38.545Z,94.93
2023-12-26T04:53:40.388Z,95.16
2023-12-26T04:58:42.239Z,94.68
2023-12-26T05:03:45.385Z,95.11
2023-12-26T05:08:47.677Z,94.73
2023-12-26T05:13:50.447Z,93.56
2023-12-26T05:18:53.252Z,93.07
2023-12-26T05:23:55.275Z,92.29
2023-12-26T05:28:57.659Z,93.02
2023-12-26T05:34:00.305Z,93.31
2023-12-26T05:39:02.393Z,92.46
2023-12-26T05:44:04.217Z,92.64
2023-12-26T05:49:06.348Z,92.80
2023-12-26T05:54:08.343Z,91.82
2023-12-26T05:59:10.405Z,90.32
2023-12-26T06:04:12.446Z,90.22
2023-12-26T06:09:14.627Z,90.76
2023-12-26T06:14:16.603Z,88.74
2023-12-26T06:19:19.068Z,89.63
2023-12-26T06:24:20.969Z,89.45
2023-12-26T06:29:22.798Z,90.18
2023-12-26T06:34:24.952Z,90.24
2023-12-26T06:39:26.802Z,90.93
2023-12-26T06:44:28.637Z,90.49
2023-12-26T06:49:33.831Z,90.62
2023-12-26T06:54:35.818Z,89.91
2023-12-26T06:59:37.734Z,89.58
2023-12-26T07:04:41.681Z,89.37
2023-12-26T07:09:43.374Z,89.02
2023-12-26T07:14:45.244Z,89.38
2023-12-26T07:19:46.991Z,89.98
2023-12-26T07:24:48.766Z,89.84
2023-12-26T07:29:50.527Z,89.72
2023-12-26T07:34:53.312Z,89.94
2023-12-26T07:39:55.196Z,90.55
2023-12-26T07:44:59.992Z,90.23
2023-12-26T07:50:03.480Z,89.88
2023-12-26T07:55:06.851Z,89.61
2023-12-26T08:00:10.933Z,90.51
2023-12-26T08:05:15.989Z,90.40
2023-12-26T08:10:17.797Z,90.13
2023-12-26T08:15:19.629Z,89.36
2023-12-26T08:20:21.336Z,90.31
2023-12-26T08:25:22.992Z,90.60
2023-12-26T08:30:24.854Z,90.24
2023-12-26T08:35:27.106Z,89.94
2023-12-26T08:40:28.940Z,91.06
2023-12-26T08:45:32.322Z,91.90
2023-12-26T08:50:34.191Z,91.52
2023-12-26T08:55:36.036Z,91.73
2023-12-26T09:00:37.750Z,91.87
2023-12-26T09:05:41.553Z,92.34
2023-12-26T09:10:44.896Z,92.42
2023-12-26T09:15:46.623Z,92.44
2023-12-26T09:20:48.355Z,92.37
2023-12-26T09:25:50.080Z,90.91
2023-12-26T09:30:51.819Z,90.50
2023-12-26T09:35:53.525Z,90.50
2023-12-26T09:40:55.355Z,90.05
2023-12-26T09:45:58.028Z,88.51
2023-12-26T09:51:05.146Z,89.03
2023-12-26T09:56:09.336Z,87.81
2023-12-26T10:01:12.719Z,86.71
2023-12-26T10:06:15.940Z,86.87
2023-12-26T10:11:17.761Z,86.15
2023-12-26T10:16:20.656Z,83.71
2023-12-26T10:21:22.825Z,81.41
2023-12-26T10:26:24.764Z,79.49
2023-12-26T10:31:28.323Z,80.63
2023-12-26T10:36:31.017Z,80.89
2023-12-26T10:41:32.965Z,81.57
2023-12-26T10:46:35.417Z,81.84
2023-12-26T10:51:42.261Z,82.12
2023-12-26T10:56:45.370Z,83.64
2023-12-26T11:01:48.811Z,84.23
2023-12-26T11:06:51.639Z,83.66
2023-12-26T11:11:53.517Z,84.51
2023-12-26T11:16:55.335Z,85.22
2023-12-26T11:21:57.164Z,85.64
2023-12-26T11:27:04.456Z,85.53
2023-12-26T11:32:06.399Z,85.39
2023-12-26T11:37:08.552Z,83.27
2023-12-26T11:42:10.479Z,82.42
2023-12-26T11:47:23.274Z,84.19
2023-12-26T11:52:25.735Z,83.91
2023-12-26T11:57:27.631Z,82.48
2023-12-26T12:02:29.483Z,83.29
2023-12-26T12:07:31.247Z,83.45
2023-12-26T12:12:33.082Z,82.16
2023-12-26T12:17:40.416Z,82.77
2023-12-26T12:22:42.381Z,82.74
2023-12-26T12:28:12.948Z,83.88
2023-12-26T12:33:21.275Z,83.73
2023-12-26T12:38:23.285Z,84.52
2023-12-26T12:43:35.550Z,84.75
2023-12-26T12:48:40.191Z,85.12
2023-12-26T12:53:41.932Z,84.69
2023-12-26T12:58:43.666Z,85.44
2023-12-26T13:03:45.530Z,85.76
2023-12-26T13:08:47.488Z,85.26
2023-12-26T13:13:49.283Z,85.75
2023-12-26T13:18:51.010Z,86.22
2023-12-26T13:23:52.728Z,87.22
2023-12-26T13:28:54.411Z,87.52
2023-12-26T13:33:58.598Z,88.81
2023-12-26T13:39:00.492Z,90.47
2023-12-26T13:44:02.204Z,92.86
2023-12-26T13:49:03.999Z,94.06
2023-12-26T13:54:05.801Z,94.55
2023-12-26T13:59:07.571Z,93.17
2023-12-26T14:04:09.486Z,91.92
2023-12-26T14:09:11.542Z,90.57
2023-12-26T14:14:13.331Z,89.16
2023-12-26T14:19:15.457Z,90.13
2023-12-26T14:24:20.304Z,89.01
2023-12-26T14:29:30.363Z,88.21
2023-12-26T14:34:40.654Z,87.00
2023-12-26T14:39:42.581Z,87.31
2023-12-26T14:44:44.442Z,86.90
2023-12-26T14:49:47.384Z,85.16
2023-12-26T14:54:49.395Z,85.57
2023-12-26T14:59:51.105Z,87.66
2023-12-26T15:04:52.904Z,85.63
2023-12-26T15:09:54.613Z,86.24
2023-12-26T15:14:56.408Z,85.80
2023-12-26T15:19:58.266Z,85.47
2023-12-26T15:25:00.210Z,84.52
2023-12-26T15:30:02.037Z,82.01
2023-12-26T15:35:05.653Z,80.80
2023-12-26T15:40:08.321Z,79.16
2023-12-26T15:45:10.704Z,79.23
2023-12-26T15:50:12.984Z,80.39
2023-12-26T15:55:14.948Z,80.58
2023-12-26T16:00:17.137Z,79.68
2023-12-26T16:05:18.841Z,77.99
2023-12-26T16:10:21.568Z,78.67
2023-12-26T16:15:23.325Z,78.61
2023-12-26T16:20:25.101Z,78.71
2023-12-26T16:25:26.802Z,80.02
2023-12-26T16:30:28.873Z,79.53
2023-12-26T16:35:30.716Z,80.41
2023-12-26T16:40:32.493Z,81.60
2023-12-26T16:45:34.367Z,82.40
2023-12-26T16:50:36.248Z,84.05
2023-12-26T16:55:38.008Z,84.18
2023-12-26T17:00:40.430Z,84.54
2023-12-26T17:05:51.468Z,85.01
2023-12-26T17:10:54.809Z,83.69
2023-12-26T17:15:56.580Z,83.56
2023-12-26T17:20:58.318Z,82.59
2023-12-26T17:26:00.047Z,83.42
2023-12-26T17:31:04.400Z,82.52
2023-12-26T17:36:06.457Z,81.37
2023-12-26T17:41:08.238Z,81.34
2023-12-26T17:46:15.814Z,80.56
2023-12-26T17:51:17.607Z,81.02
2023-12-26T17:56:24.618Z,80.92
2023-12-26T18:01:29.693Z,81.16
2023-12-26T18:06:31.776Z,80.91
2023-12-26T18:11:34.056Z,79.70
2023-12-26T18:16:39.306Z,79.40
2023-12-26T18:21:45.965Z,79.24
2023-12-26T18:26:48.105Z,78.63
2023-12-26T18:31:50.565Z,79.74
2023-12-26T18:36:52.275Z,80.09
2023-12-26T18:41:54.352Z,80.64
2023-12-26T18:46:56.420Z,81.77
2023-12-26T18:51:58.451Z,81.78
2023-12-26T18:57:00.197Z,82.75
2023-12-26T19:02:02.080Z,83.11
2023-12-26T19:07:03.970Z,83.91
2023-12-26T19:12:08.939Z,84.49
2023-12-26T19:17:10.625Z,84.46
2023-12-26T19:22:12.391Z,85.30
2023-12-26T19:27:14.190Z,84.78
2023-12-26T19:32:15.980Z,85.41
2023-12-26T19:37:17.809Z,85.12
2023-12-26T19:42:19.714Z,85.04
2023-12-26T19:47:21.984Z,85.33
2023-12-26T19:52:23.684Z,86.24
2023-12-26T19:57:26.753Z,86.45
2023-12-26T20:02:28.488Z,86.37
2023-12-26T20:07:30.282Z,86.75
2023-12-26T20:12:32.327Z,87.56
2023-12-26T20:17:34.843Z,87.70
2023-12-26T20:22:36.693Z,87.61
2023-12-26T20:27:38.529Z,87.31
2023-12-26T20:32:40.270Z,87.63
2023-12-26T20:37:43.248Z,88.45
2023-12-26T20:42:44.965Z,88.77
2023-12-26T20:47:46.712Z,88.84
2023-12-26T20:52:48.487Z,87.53
2023-12-26T20:57:50.443Z,88.00
2023-12-26T21:02:52.211Z,87.84
2023-12-26T21:07:54.349Z,87.19
2023-12-26T21:12:56.356Z,87.55
2023-12-26T21:17:59.876Z,87.34
2023-12-26T21:23:02.169Z,87.36
2023-12-26T21:28:04.128Z,87.68
2023-12-26T21:33:05.865Z,87.52
2023-12-26T21:38:07.768Z,87.80
2023-12-26T21:43:09.492Z,88.07
2023-12-26T21:48:14.483Z,88.78
2023-12-26T21:53:16.366Z,88.51
2023-12-26T21:58:18.259Z,88.87
2023-12-26T22:03:20.211Z,89.32
2023-12-26T22:08:22.269Z,89.72
2023-12-26T22:13:24.027Z,89.85
2023-12-26T22:18:25.957Z,88.81
2023-12-26T22:23:30.498Z,88.96
2023-12-26T22:28:32.696Z,89.66
2023-12-26T22:33:34.786Z,90.20
2023-12-26T22:38:37.355Z,90.14
2023-12-26T22:43:39.043Z,90.38
2023-12-26T22:48:42.045Z,90.74
2023-12-26T22:53:44.397Z,91.16
2023-12-26T22:58:46.100Z,91.38
2023-12-26T23:03:48.040Z,91.72
2023-12-26T23:08:49.891Z,92.41
2023-12-26T23:13:52.438Z,92.63
2023-12-26T23:18:54.303Z,92.46
2023-12-26T23:23:56.898Z,92.65
2023-12-26T23:28:58.712Z,92.64
2023-12-26T23:34:01.008Z,92.82
2023-12-26T23:39:02.959Z,92.75
2023-12-26T23:44:04.743Z,92.51
2023-12-26T23:49:06.815Z,92.32
2023-12-26T23:54:08.675Z,92.81
2023-12-26T23:59:10.739Z,93.12
